Time;durP1;ratioP1;P1;durP2;ratioP2;P2;SDS_P1;SDS_P2;PMS_P1;PMS_P2;Temp;Humidity;BMP_temperature;BMP_pressure;BME280_temperature;BME280_humidity;BME280_pressure;Samples;Min_cycle;Max_cycle;Signal;HPM_P1;HPM_P2
2022/02/04 00:22:36;;;;;;;6.60;4.20;;;1.40;66.80;;;;;;5078519;28;20047;-59
2022/02/04 00:24:21;;;;;;;7.10;4.20;;;1.40;66.70;;;;;;5065768;28;20484;-60
2022/02/04 00:26:53;;;;;;;6.75;6.00;;;1.30;66.90;;;;;;5080812;28;20074;-60
2022/02/04 00:29:32;;;;;;;6.40;4.10;;;1.30;67.20;;;;;;5077755;28;20020;-60
2022/02/04 00:32:04;;;;;;;6.35;4.68;;;1.30;67.20;;;;;;5070718;28;20086;-60
2022/02/04 00:34:37;;;;;;;7.07;4.20;;;1.20;67.60;;;;;;5075272;28;20045;-60
2022/02/04 00:37:20;;;;;;;6.93;6.13;;;1.10;67.60;;;;;;5074524;28;20027;-60
2022/02/04 00:39:54;;;;;;;7.65;5.03;;;1.20;67.90;;;;;;5071663;28;20067;-60
2022/02/04 00:42:20;;;;;;;7.15;4.00;;;1.20;67.70;;;;;;5071215;28;20474;-60
2022/02/04 00:44:46;;;;;;;9.65;6.63;;;1.10;67.70;;;;;;5066198;28;20025;-59
2022/02/04 00:47:16;;;;;;;6.97;6.03;;;1.20;67.80;;;;;;5070256;28;20020;-59
2022/02/04 00:52:25;;;;;;;7.90;6.40;;;1.30;67.00;;;;;;5064937;28;20550;-60
2022/02/04 00:55:13;;;;;;;7.63;4.97;;;1.20;66.70;;;;;;5068080;28;20533;-60
2022/02/04 01:26:58;;;;;;;6.88;5.45;;;1.20;66.60;;;;;;5070016;28;20051;-60
2022/02/04 01:29:29;;;;;;;7.00;5.93;;;1.10;66.40;;;;;;5076677;28;20016;-59
2022/02/04 01:31:54;;;;;;;7.05;4.25;;;1.20;66.10;;;;;;5071349;28;20051;-59
2022/02/04 01:34:20;;;;;;;6.15;5.32;;;1.10;66.10;;;;;;5070883;28;20454;-60
2022/02/04 01:36:46;;;;;;;4.90;3.90;;;1.10;66.10;;;;;;5069642;28;20082;-59
2022/02/04 01:39:11;;;;;;;4.85;3.72;;;1.10;66.20;;;;;;5070967;28;20476;-59
2022/02/04 01:41:37;;;;;;;5.45;3.83;;;1.00;66.50;;;;;;5075352;28;20471;-59
2022/02/04 01:44:20;;;;;;;6.47;4.97;;;1.00;66.90;;;;;;5084052;28;20020;-60
2022/02/04 01:46:46;;;;;;;6.00;5.28;;;1.10;66.80;;;;;;5079066;28;20115;-59
2022/02/04 01:49:12;;;;;;;7.65;5.93;;;1.10;66.50;;;;;;5078488;28;20147;-60
2022/02/04 01:51:37;;;;;;;7.30;5.68;;;1.20;66.30;;;;;;5070112;28;20024;-59
2022/02/04 01:54:03;;;;;;;6.50;5.30;;;1.20;66.00;;;;;;5070809;28;20115;-60
2022/02/04 01:56:28;;;;;;;6.97;5.80;;;1.20;65.60;;;;;;5072463;28;20032;-59
2022/02/04 01:58:54;;;;;;;4.63;3.65;;;1.20;65.40;;;;;;5074125;28;20476;-60
2022/02/04 02:01:20;;;;;;;6.95;5.22;;;1.10;65.40;;;;;;5072277;28;20103;-59
2022/02/04 02:03:45;;;;;;;6.97;5.65;;;1.10;65.90;;;;;;5055619;28;20032;-59
2022/02/04 02:06:11;;;;;;;6.13;5.53;;;1.10;65.20;;;;;;5062547;28;20040;-59
2022/02/04 02:08:40;;;;;;;7.35;5.70;;;1.10;65.20;;;;;;5083889;28;20447;-58
2022/02/04 02:11:08;;;;;;;6.25;5.30;;;1.10;65.10;;;;;;5075479;28;20013;-59
2022/02/04 02:16:19;;;;;;;6.05;5.20;;;1.10;65.10;;;;;;5074720;28;20423;-60
2022/02/04 02:43:39;;;;;;;5.97;4.93;;;0.90;63.90;;;;;;5064759;28;20526;-59
2022/02/04 02:59:11;;;;;;;6.03;5.35;;;0.70;64.60;;;;;;5068593;28;20407;-60
2022/02/04 03:01:43;;;;;;;6.47;5.57;;;0.70;64.70;;;;;;5067672;28;20052;-59
2022/02/04 03:04:13;;;;;;;6.03;3.88;;;0.70;64.60;;;;;;5066387;28;20045;-60
2022/02/04 03:06:39;;;;;;;5.05;3.58;;;0.60;64.70;;;;;;5066155;28;20035;-60
2022/02/04 03:09:05;;;;;;;5.93;3.85;;;0.60;64.90;;;;;;5067913;28;20040;-59
2022/02/04 03:11:31;;;;;;;5.90;5.25;;;0.50;65.20;;;;;;5073232;28;20063;-59
2022/02/04 03:13:56;;;;;;;5.63;3.90;;;0.60;65.10;;;;;;5063667;28;20016;-60
2022/02/04 03:16:23;;;;;;;6.50;5.25;;;0.50;65.00;;;;;;5080128;28;20411;-59
2022/02/04 03:18:51;;;;;;;6.72;6.00;;;0.50;65.10;;;;;;5070796;28;20032;-59
2022/02/04 03:21:23;;;;;;;7.07;6.30;;;0.60;64.70;;;;;;5072276;28;20097;-60
2022/02/04 03:23:54;;;;;;;6.15;3.53;;;0.60;65.30;;;;;;5083487;28;20057;-60
2022/02/04 03:27:09;;;;;;;7.53;6.40;;;0.40;64.70;;;;;;5074778;28;20057;-59
2022/02/04 03:29:06;;;;;;;6.05;4.60;;;0.50;64.90;;;;;;5053134;28;20040;-59
2022/02/04 03:31:38;;;;;;;7.35;6.45;;;0.40;64.90;;;;;;5079113;28;20399;-60
2022/02/04 03:34:04;;;;;;;7.13;6.25;;;0.40;65.20;;;;;;5074779;28;20055;-59
2022/02/04 03:36:30;;;;;;;8.98;6.75;;;0.30;64.90;;;;;;5066237;28;20032;-59
2022/02/04 03:38:56;;;;;;;7.93;6.60;;;0.30;64.80;;;;;;5070752;28;20033;-60
2022/02/04 03:41:22;;;;;;;8.20;6.32;;;0.30;64.80;;;;;;5078489;28;20024;-59
2022/02/04 03:43:47;;;;;;;7.43;6.53;;;0.20;64.80;;;;;;5074973;28;20024;-59
2022/02/04 03:46:13;;;;;;;7.75;6.53;;;0.20;64.80;;;;;;5076435;28;20051;-59
2022/02/04 03:48:39;;;;;;;7.15;4.72;;;0.10;65.00;;;;;;5076834;28;20024;-59
2022/02/04 03:51:05;;;;;;;8.52;7.00;;;0.00;65.10;;;;;;5076537;28;20027;-59
2022/02/04 03:53:30;;;;;;;6.75;6.05;;;0.00;65.70;;;;;;5069646;28;20017;-59
2022/02/04 03:55:56;;;;;;;7.75;6.78;;;0.00;65.70;;;;;;5076105;28;20042;-59
2022/02/04 03:58:22;;;;;;;9.88;7.50;;;0.00;65.60;;;;;;5072219;28;20028;-59
2022/02/04 04:00:48;;;;;;;8.43;7.30;;;0.00;65.50;;;;;;5075918;28;20043;-59
2022/02/04 04:03:14;;;;;;;9.63;7.25;;;-0.10;65.30;;;;;;5076393;28;20046;-59
2022/02/04 04:05:45;;;;;;;8.05;6.65;;;-0.10;65.30;;;;;;5073514;28;20032;-59
2022/02/04 04:08:13;;;;;;;;;;;-0.10;65.30;;;;;;5071801;28;20056;-59
2022/02/04 04:10:41;;;;;;;6.00;4.53;;;-0.20;65.40;;;;;;5072306;28;19930;-59
2022/02/04 04:13:08;;;;;;;10.27;6.80;;;-0.30;65.70;;;;;;5075510;28;20028;-59
2022/02/04 04:15:34;;;;;;;8.55;7.05;;;-0.30;66.00;;;;;;5090788;28;20543;-59
2022/02/04 04:18:00;;;;;;;8.15;5.15;;;-0.20;65.90;;;;;;5070740;28;20036;-59
2022/02/04 04:20:27;;;;;;;7.25;6.55;;;-0.30;66.00;;;;;;5072520;28;20031;-59
2022/02/04 04:22:54;;;;;;;8.38;5.40;;;-0.20;66.00;;;;;;5074105;28;20017;-59
2022/02/04 04:25:20;;;;;;;8.73;7.63;;;-0.30;65.90;;;;;;5076278;28;20067;-59
2022/02/04 04:27:47;;;;;;;9.70;7.10;;;-0.20;66.20;;;;;;5077030;28;20051;-59
2022/02/04 04:30:18;;;;;;;8.18;5.10;;;-0.20;66.20;;;;;;5075010;28;20024;-59
2022/02/04 04:32:45;;;;;;;9.23;7.28;;;-0.30;65.90;;;;;;5075617;28;20021;-59
2022/02/04 04:35:15;;;;;;;7.93;5.43;;;-0.20;66.10;;;;;;5076360;28;20071;-59
2022/02/04 04:37:55;;;;;;;7.25;4.47;;;-0.30;65.90;;;;;;5076381;28;20041;-59
2022/02/04 04:40:48;;;;;;;7.93;6.60;;;-0.30;66.20;;;;;;5075663;28;20055;-60
2022/02/04 05:29:19;;;;;;;10.90;8.43;;;-0.50;66.10;;;;;;5074859;28;20024;-60
2022/02/04 05:31:46;;;;;;;13.65;10.23;;;-0.50;66.30;;;;;;5069427;28;20456;-59
2022/02/04 05:34:17;;;;;;;12.88;10.10;;;-0.40;66.10;;;;;;5074159;28;20036;-61
2022/02/04 05:36:46;;;;;;;9.80;6.30;;;-0.40;66.00;;;;;;5071372;28;20124;-59
2022/02/04 05:39:13;;;;;;;11.18;9.18;;;-0.50;66.00;;;;;;5074012;28;20036;-59
2022/02/04 05:41:43;;;;;;;12.32;10.07;;;-0.50;66.30;;;;;;5077647;28;20028;-59
2022/02/04 05:44:12;;;;;;;14.13;10.80;;;-0.50;66.10;;;;;;5078679;28;20051;-59
2022/02/04 05:46:55;;;;;;;13.30;10.68;;;-0.40;66.10;;;;;;5080032;28;20024;-59
2022/02/04 05:49:23;;;;;;;11.05;9.52;;;-0.40;66.00;;;;;;5075258;28;20509;-59
2022/02/04 05:57:11;;;;;;;11.10;9.15;;;-0.30;65.90;;;;;;5068894;28;20080;-58
2022/02/04 06:02:25;;;;;;;11.68;8.68;;;-0.30;65.80;;;;;;5068910;28;20528;-59
2022/02/04 06:05:15;;;;;;;9.10;7.50;;;-0.30;65.70;;;;;;5077408;28;20369;-58
2022/02/04 06:13:17;;;;;;;9.80;5.95;;;-0.10;65.60;;;;;;5069025;28;20051;-58
2022/02/04 06:24:03;;;;;;;10.55;8.35;;;0.00;65.50;;;;;;5060169;28;20655;-59
2022/02/04 06:26:30;;;;;;;12.25;9.77;;;0.00;65.70;;;;;;5063845;28;20123;-59
2022/02/04 06:28:56;;;;;;;12.45;9.55;;;0.10;65.40;;;;;;5063511;28;20219;-59
2022/02/04 06:31:23;;;;;;;11.38;9.75;;;0.20;65.10;;;;;;5063209;28;20155;-58
2022/02/04 06:33:49;;;;;;;11.15;6.50;;;0.20;64.80;;;;;;5066566;28;20037;-59
2022/02/04 06:36:15;;;;;;;11.43;8.65;;;0.20;64.80;;;;;;5074000;28;20493;-59
2022/02/04 06:38:40;;;;;;;10.75;9.10;;;0.20;65.00;;;;;;5074531;28;20024;-59
2022/02/04 06:41:06;;;;;;;9.88;8.52;;;0.30;64.70;;;;;;5069093;28;20036;-59
2022/02/04 06:43:32;;;;;;;10.68;8.70;;;0.40;64.40;;;;;;5060033;28;20055;-59
2022/02/04 06:45:58;;;;;;;10.32;7.90;;;0.50;64.20;;;;;;5062316;28;20491;-57
2022/02/04 06:48:24;;;;;;;8.95;5.65;;;0.50;64.00;;;;;;5066560;28;20032;-58
2022/02/04 06:50:50;;;;;;;9.15;7.63;;;0.50;63.90;;;;;;5075250;28;20035;-58
2022/02/04 06:53:16;;;;;;;9.98;8.20;;;0.50;64.10;;;;;;5066430;28;20155;-59
2022/02/04 06:55:42;;;;;;;8.63;5.18;;;0.50;63.90;;;;;;5058546;28;20047;-58
2022/02/04 06:58:08;;;;;;;10.85;8.05;;;0.50;64.00;;;;;;5057608;28;20484;-59
2022/02/04 07:00:34;;;;;;;9.10;7.85;;;0.50;64.20;;;;;;5065670;28;20515;-59
2022/02/04 07:03:00;;;;;;;9.43;7.55;;;0.50;63.80;;;;;;5071482;28;20029;-59
2022/02/04 07:05:26;;;;;;;8.73;7.43;;;0.50;63.70;;;;;;5058076;28;20041;-60
2022/02/04 07:08:07;;;;;;;7.53;5.20;;;0.50;63.90;;;;;;5067249;28;20033;-61
2022/02/04 07:10:54;;;;;;;8.18;5.35;;;0.40;63.90;;;;;;5059193;28;20029;-59
2022/02/04 07:13:31;;;;;;;6.40;4.50;;;0.30;64.30;;;;;;5060014;28;20037;-60
2022/02/04 07:16:20;;;;;;;7.88;6.53;;;0.30;65.30;;;;;;5040724;28;20032;-61
2022/02/04 07:21:30;;;;;;;7.82;6.93;;;0.20;64.70;;;;;;5061741;28;20047;-61
2022/02/04 07:23:56;;;;;;;8.45;5.45;;;0.30;64.90;;;;;;5063672;28;20752;-60
2022/02/04 07:26:22;;;;;;;8.57;5.55;;;0.30;64.80;;;;;;5067376;28;20037;-60
2022/02/04 07:28:48;;;;;;;8.65;7.18;;;0.20;65.10;;;;;;5059810;28;20025;-60
2022/02/04 07:31:15;;;;;;;8.05;7.10;;;0.30;65.10;;;;;;5066037;28;20373;-61
2022/02/04 07:33:48;;;;;;;8.77;7.18;;;0.30;64.70;;;;;;5060605;28;20072;-61
2022/02/04 07:41:39;;;;;;;7.68;4.80;;;0.30;64.20;;;;;;5056287;28;20089;-60
2022/02/04 07:44:05;;;;;;;9.20;4.93;;;0.30;64.30;;;;;;5061764;28;20060;-61
2022/02/04 07:46:31;;;;;;;9.27;7.47;;;0.20;64.60;;;;;;5051274;28;20200;-60
2022/02/04 07:48:57;;;;;;;8.68;6.15;;;0.20;64.80;;;;;;5053665;28;20032;-61
2022/02/04 07:51:23;;;;;;;9.48;7.47;;;0.20;64.80;;;;;;5048665;28;20027;-60
2022/02/04 07:53:48;;;;;;;9.65;8.20;;;0.30;65.10;;;;;;5045122;28;20052;-61
2022/02/04 07:56:20;;;;;;;9.25;7.75;;;0.30;64.90;;;;;;5056889;28;20135;-60
2022/02/04 07:58:54;;;;;;;8.02;5.13;;;0.30;64.70;;;;;;5049643;28;20028;-60
2022/02/04 08:01:25;;;;;;;8.77;6.13;;;0.30;65.30;;;;;;5041865;28;20401;-59
2022/02/04 08:03:57;;;;;;;6.45;4.40;;;0.20;65.10;;;;;;5046180;28;20032;-62
2022/02/04 08:06:25;;;;;;;8.48;7.10;;;0.20;65.30;;;;;;5051234;28;20112;-61
2022/02/04 08:11:45;;;;;;;7.50;4.68;;;0.30;65.40;;;;;;5039851;28;20679;-57
2022/02/04 08:16:58;;;;;;;9.55;7.30;;;0.20;65.80;;;;;;5051461;28;20067;-58
2022/02/04 08:30:09;;;;;;;9.10;5.35;;;0.40;66.00;;;;;;5055633;28;20103;-62
2022/02/04 08:35:33;;;;;;;7.05;6.28;;;0.40;66.20;;;;;;5057644;28;20163;-61
2022/02/04 08:53:58;;;;;;;6.75;6.03;;;0.50;66.30;;;;;;5045600;28;20154;-60
2022/02/04 08:56:38;;;;;;;7.07;4.72;;;0.70;66.50;;;;;;5042255;28;20029;-60
2022/02/04 08:59:20;;;;;;;6.22;4.57;;;0.70;66.00;;;;;;5051542;28;20048;-60
2022/02/04 09:01:53;;;;;;;6.88;4.50;;;0.70;66.10;;;;;;5039599;28;20653;-60
2022/02/04 09:04:28;;;;;;;5.38;4.20;;;0.70;66.10;;;;;;5044967;28;20028;-60
2022/02/04 09:07:01;;;;;;;7.70;4.03;;;0.60;66.10;;;;;;5044495;28;20083;-60
2022/02/04 09:12:24;;;;;;;7.72;6.20;;;0.70;66.40;;;;;;5047847;28;21693;-60
2022/02/04 09:18:04;;;;;;;6.18;5.57;;;0.80;65.90;;;;;;5042879;28;20094;-60
2022/02/04 09:22:50;;;;;;;7.68;6.20;;;0.90;65.50;;;;;;5045363;28;20032;-60
2022/02/04 09:25:15;;;;;;;6.70;5.70;;;0.90;65.40;;;;;;5043769;28;20034;-60
2022/02/04 09:27:41;;;;;;;7.28;4.82;;;1.00;65.10;;;;;;5049990;28;20492;-60
2022/02/04 09:30:10;;;;;;;7.75;6.07;;;0.90;64.90;;;;;;5049288;28;20060;-60
2022/02/04 09:32:36;;;;;;;7.53;4.35;;;0.90;65.00;;;;;;5047657;28;20036;-61
2022/02/04 09:35:15;;;;;;;6.25;5.60;;;0.90;65.10;;;;;;5046081;28;20045;-60
2022/02/04 09:37:42;;;;;;;6.75;4.20;;;1.00;65.20;;;;;;5049785;28;20114;-61
2022/02/04 09:40:10;;;;;;;7.40;4.13;;;0.90;65.20;;;;;;5049367;28;20025;-60
2022/02/04 09:42:37;;;;;;;7.43;4.28;;;0.90;65.20;;;;;;5045008;28;20024;-60
2022/02/04 09:45:02;;;;;;;4.75;3.60;;;0.90;65.30;;;;;;5046728;28;20040;-60
2022/02/04 09:47:36;;;;;;;8.27;4.20;;;0.90;65.40;;;;;;5045675;28;20033;-60
2022/02/04 09:50:13;;;;;;;8.35;5.20;;;0.90;65.40;;;;;;5044351;28;20446;-61
2022/02/04 10:17:11;;;;;;;5.07;4.05;;;0.90;65.10;;;;;;5048379;28;20037;-57
2022/02/04 10:19:49;;;;;;;6.15;4.93;;;1.00;65.90;;;;;;5043226;28;20089;-59
2022/02/04 10:22:26;;;;;;;7.10;4.45;;;1.10;64.90;;;;;;5052534;28;20048;-58
2022/02/04 10:24:58;;;;;;;4.82;3.75;;;1.20;64.60;;;;;;5048987;28;20051;-61
2022/02/04 10:27:26;;;;;;;5.97;3.97;;;1.20;64.60;;;;;;5052033;28;20099;-62
2022/02/04 10:29:58;;;;;;;6.93;4.40;;;1.20;64.50;;;;;;5044512;28;20115;-61
2022/02/04 10:32:42;;;;;;;5.00;3.75;;;1.30;64.50;;;;;;5046424;28;20110;-61
2022/02/04 10:35:14;;;;;;;5.90;4.97;;;1.30;64.40;;;;;;5045193;28;20127;-62
2022/02/04 10:37:55;;;;;;;6.13;3.90;;;1.30;64.10;;;;;;5050254;28;20119;-62
2022/02/04 10:46:24;;;;;;;6.03;4.38;;;1.30;64.40;;;;;;5044653;28;20138;-59
2022/02/04 10:57:13;;;;;;;6.40;3.83;;;1.50;64.00;;;;;;5037099;28;20079;-60
2022/02/04 11:04:27;;;;;;;7.10;4.70;;;1.60;64.00;;;;;;5035604;28;20033;-60
2022/02/04 11:10:54;;;;;;;6.35;4.35;;;1.50;64.00;;;;;;5049485;28;20039;-59
2022/02/04 11:44:22;;;;;;;6.63;5.65;;;1.40;63.80;;;;;;5056473;28;20024;-59
2022/02/04 11:54:54;;;;;;;7.43;6.50;;;1.50;63.30;;;;;;5057219;28;20176;-60
2022/02/04 11:57:26;;;;;;;6.93;4.53;;;1.50;63.00;;;;;;5055934;28;20035;-60
2022/02/04 12:00:18;;;;;;;7.00;5.65;;;1.50;63.30;;;;;;5052511;28;20131;-60
2022/02/04 12:02:45;;;;;;;6.63;5.93;;;1.50;63.30;;;;;;5056234;28;20102;-60
2022/02/04 12:05:11;;;;;;;6.10;4.35;;;1.50;62.90;;;;;;5056745;28;20569;-59
2022/02/04 12:07:42;;;;;;;5.93;5.18;;;1.50;63.00;;;;;;5054309;28;20029;-60
2022/02/04 12:10:13;;;;;;;6.40;4.88;;;1.50;63.00;;;;;;5055627;28;20036;-59
2022/02/04 12:12:58;;;;;;;7.00;5.63;;;1.50;63.00;;;;;;5044380;28;21494;-60
2022/02/04 12:15:30;;;;;;;7.03;4.20;;;1.50;63.20;;;;;;5033040;28;20094;-59
2022/02/04 12:18:11;;;;;;;6.85;5.35;;;1.50;63.20;;;;;;5048394;28;20115;-59
2022/02/04 12:20:55;;;;;;;7.40;3.75;;;1.60;62.90;;;;;;5050229;28;21339;-60
2022/02/04 12:23:30;;;;;;;6.53;5.55;;;1.50;62.90;;;;;;5048090;28;20037;-61
2022/02/04 12:26:12;;;;;;;6.35;3.78;;;1.60;62.70;;;;;;5047224;28;20032;-60
2022/02/04 12:28:50;;;;;;;4.97;3.63;;;1.50;62.50;;;;;;5053504;28;20021;-62
2022/02/04 12:31:24;;;;;;;5.15;3.72;;;1.50;62.80;;;;;;5048075;28;20033;-61
2022/02/04 12:33:55;;;;;;;5.97;5.30;;;1.50;63.00;;;;;;5052115;28;20778;-62
2022/02/04 12:36:32;;;;;;;4.97;4.03;;;1.60;63.00;;;;;;5044006;28;20066;-61
2022/02/04 12:39:02;;;;;;;4.88;3.55;;;1.50;62.50;;;;;;5044378;28;20040;-60
2022/02/04 12:41:30;;;;;;;6.03;5.00;;;1.50;62.60;;;;;;5046993;28;20036;-59
2022/02/04 12:44:03;;;;;;;5.45;3.65;;;1.60;62.60;;;;;;5047607;28;20029;-59
2022/02/04 12:46:30;;;;;;;6.15;3.63;;;1.60;62.50;;;;;;5052311;28;20027;-60
2022/02/04 12:49:08;;;;;;;7.10;5.50;;;1.60;62.70;;;;;;5046891;28;20025;-60
2022/02/04 12:51:45;;;;;;;5.53;3.75;;;1.60;62.60;;;;;;5049777;28;20040;-61
2022/02/04 12:54:12;;;;;;;6.13;4.20;;;1.60;62.60;;;;;;5043093;28;20128;-62
2022/02/04 12:56:54;;;;;;;4.38;3.60;;;1.60;62.50;;;;;;5044879;28;20155;-62
2022/02/04 13:10:04;;;;;;;;;;;1.50;61.90;;;;;;5043122;28;20031;-61
2022/02/04 13:12:30;;;;;;;5.20;4.70;;;1.50;61.40;;;;;;5050416;28;19912;-62
2022/02/04 13:14:56;;;;;;;6.10;4.30;;;1.60;62.10;;;;;;5052234;28;20453;-61
2022/02/04 13:17:29;;;;;;;6.40;3.72;;;1.60;61.80;;;;;;5048823;28;20025;-61
2022/02/04 13:19:57;;;;;;;4.50;3.30;;;1.60;62.20;;;;;;5051724;28;20901;-61
2022/02/04 13:22:23;;;;;;;5.18;3.70;;;1.50;62.30;;;;;;5044125;28;20586;-62
2022/02/04 13:25:10;;;;;;;5.63;4.85;;;1.50;62.40;;;;;;5045609;28;20083;-62
2022/02/04 13:27:37;;;;;;;6.20;3.78;;;1.60;62.00;;;;;;5043772;28;20032;-61
2022/02/04 13:30:23;;;;;;;4.85;3.58;;;1.60;62.00;;;;;;5044471;28;20029;-61
2022/02/04 13:32:49;;;;;;;3.72;3.28;;;1.60;61.90;;;;;;5039977;28;20040;-62
2022/02/04 13:35:50;;;;;;;6.70;5.47;;;1.50;62.10;;;;;;5044139;28;20048;-61
2022/02/04 13:39:12;;;;;;;6.53;3.78;;;1.60;61.80;;;;;;5028993;28;20045;-61
2022/02/04 13:41:20;;;;;;;5.43;4.82;;;1.60;61.70;;;;;;5030940;28;20037;-60
2022/02/04 13:44:19;;;;;;;8.07;3.85;;;1.70;61.40;;;;;;5037475;28;20043;-60
2022/02/04 13:47:01;;;;;;;4.57;3.30;;;1.60;61.20;;;;;;5041695;28;20765;-61
2022/02/04 13:52:16;;;;;;;5.00;3.40;;;1.60;61.50;;;;;;5033805;28;20420;-62
2022/02/04 13:59:52;;;;;;;5.18;4.43;;;1.50;61.50;;;;;;5038466;28;20037;-61
2022/02/04 14:02:26;;;;;;;3.45;3.15;;;1.60;61.20;;;;;;5034592;28;20068;-60
2022/02/04 14:05:00;;;;;;;4.15;3.75;;;1.60;60.80;;;;;;5045967;28;20028;-61
2022/02/04 14:07:37;;;;;;;5.75;4.80;;;1.50;61.10;;;;;;5044174;28;20495;-60
2022/02/04 14:10:31;;;;;;;4.75;3.33;;;1.60;61.00;;;;;;5040966;28;20404;-61
2022/02/04 14:13:05;;;;;;;5.20;3.40;;;1.50;60.90;;;;;;5038994;28;20986;-60
2022/02/04 14:15:32;;;;;;;3.13;2.80;;;1.50;61.30;;;;;;5035057;28;20772;-60
2022/02/04 14:18:09;;;;;;;4.60;3.33;;;1.50;61.50;;;;;;5037014;28;20024;-62
2022/02/04 14:20:37;;;;;;;4.15;2.92;;;1.40;61.40;;;;;;5044421;28;21063;-62
2022/02/04 14:23:05;;;;;;;5.63;4.63;;;1.40;61.60;;;;;;5038919;28;20039;-62
2022/02/04 14:25:31;;;;;;;5.63;3.70;;;1.50;61.60;;;;;;5041895;28;20933;-62
2022/02/04 14:28:00;;;;;;;4.45;3.28;;;1.40;61.20;;;;;;5047584;28;20116;-62
2022/02/04 14:30:32;;;;;;;4.05;3.40;;;1.40;61.50;;;;;;5028142;28;20033;-62
2022/02/04 14:33:07;;;;;;;5.40;4.88;;;1.40;61.70;;;;;;5051205;28;20024;-62
2022/02/04 14:35:49;;;;;;;6.28;3.42;;;1.50;62.50;;;;;;5028620;28;20056;-62
2022/02/04 14:52:01;;;;;;;5.47;3.70;;;1.50;62.20;;;;;;5046291;28;20035;-61
2022/02/04 14:54:49;;;;;;;6.05;3.40;;;1.40;62.00;;;;;;5046431;28;20039;-59
2022/02/04 15:02:43;;;;;;;7.20;3.80;;;1.40;62.00;;;;;;5037850;28;21182;-61
2022/02/04 15:05:13;;;;;;;7.03;5.60;;;1.40;61.80;;;;;;5039510;28;20033;-59
2022/02/04 15:07:40;;;;;;;6.65;4.13;;;1.50;61.50;;;;;;5051593;28;20021;-59
2022/02/04 15:10:12;;;;;;;6.53;3.80;;;1.40;61.20;;;;;;5044942;28;20071;-60
2022/02/04 15:12:38;;;;;;;6.68;4.05;;;1.40;61.20;;;;;;5045818;28;20029;-60
2022/02/04 15:15:04;;;;;;;5.85;4.47;;;1.30;61.40;;;;;;5041813;28;20036;-59
2022/02/04 15:17:31;;;;;;;6.43;4.07;;;1.30;61.40;;;;;;5048166;28;20079;-62
2022/02/04 15:19:57;;;;;;;5.32;4.28;;;1.30;61.40;;;;;;5046319;28;20150;-60
2022/02/04 15:22:26;;;;;;;8.43;6.80;;;1.30;61.40;;;;;;5043877;28;20050;-61
2022/02/04 15:24:56;;;;;;;7.13;4.75;;;1.30;61.20;;;;;;5045529;28;20094;-62
2022/02/04 15:27:22;;;;;;;6.95;4.45;;;1.30;61.00;;;;;;5043110;28;20037;-60
2022/02/04 15:29:50;;;;;;;6.95;4.65;;;1.30;61.10;;;;;;5047203;28;20544;-61
2022/02/04 15:32:16;;;;;;;7.45;4.38;;;1.20;61.10;;;;;;5044866;28;20409;-61
2022/02/04 15:34:41;;;;;;;7.90;7.10;;;1.30;61.20;;;;;;5032766;28;20098;-61
2022/02/04 15:37:07;;;;;;;8.32;5.05;;;1.30;61.00;;;;;;5056530;28;20097;-60
2022/02/04 15:39:34;;;;;;;8.40;7.13;;;1.30;60.70;;;;;;5050384;28;20052;-61
2022/02/04 15:42:07;;;;;;;8.13;5.20;;;1.30;60.50;;;;;;5048710;28;20159;-61
2022/02/04 15:54:58;;;;;;;8.00;7.20;;;1.30;60.10;;;;;;5056815;28;20460;-59
2022/02/04 16:05:15;;;;;;;9.70;5.88;;;1.20;59.50;;;;;;5047970;28;20067;-61
2022/02/04 16:07:41;;;;;;;8.88;5.30;;;1.20;59.80;;;;;;5044789;28;20028;-61
2022/02/04 16:12:52;;;;;;;9.77;6.57;;;1.20;59.70;;;;;;5052644;28;20075;-60
2022/02/04 16:15:31;;;;;;;7.65;5.13;;;1.20;59.50;;;;;;5050960;28;20063;-60
2022/02/04 16:18:00;;;;;;;9.13;5.07;;;1.10;59.70;;;;;;5051667;28;20443;-60
2022/02/04 16:20:50;;;;;;;10.20;7.32;;;1.10;59.80;;;;;;5055856;28;20012;-60
2022/02/04 16:23:25;;;;;;;10.55;5.97;;;1.20;59.70;;;;;;5053156;28;20025;-60
2022/02/04 16:28:44;;;;;;;8.82;5.53;;;1.20;59.50;;;;;;5058895;28;20042;-59
2022/02/04 16:31:13;;;;;;;7.13;4.47;;;1.10;59.40;;;;;;5060217;28;20016;-61
2022/02/04 16:33:39;;;;;;;7.18;5.22;;;1.10;59.70;;;;;;5052945;28;20016;-61
2022/02/04 16:36:12;;;;;;;7.05;4.82;;;1.00;59.70;;;;;;5062036;28;20044;-59
2022/02/04 16:38:39;;;;;;;8.30;4.80;;;1.00;59.80;;;;;;5055517;28;20032;-59
2022/02/04 16:41:09;;;;;;;9.77;7.43;;;1.00;60.00;;;;;;5056002;28;20031;-59
2022/02/04 16:43:35;;;;;;;10.32;7.72;;;1.10;59.90;;;;;;5065296;28;20044;-59
2022/02/04 16:46:06;;;;;;;11.45;5.68;;;1.10;59.50;;;;;;5058761;28;20039;-59
2022/02/04 16:48:32;;;;;;;7.43;4.72;;;1.10;59.50;;;;;;5064822;28;20036;-59
2022/02/04 16:50:58;;;;;;;7.38;5.35;;;1.10;59.70;;;;;;5066123;28;20024;-60
2022/02/04 16:53:24;;;;;;;9.77;8.18;;;1.00;59.80;;;;;;5059141;28;20447;-59
2022/02/04 16:55:50;;;;;;;10.68;6.10;;;1.10;59.70;;;;;;5060019;28;20362;-59
2022/02/04 16:58:15;;;;;;;9.90;5.68;;;1.10;59.50;;;;;;5058563;28;20040;-59
2022/02/04 17:00:42;;;;;;;11.63;8.27;;;1.00;59.70;;;;;;5069704;28;20438;-60
2022/02/04 17:03:10;;;;;;;8.93;5.18;;;1.10;59.50;;;;;;5063751;28;20032;-60
2022/02/04 17:08:13;;;;;;;11.77;9.20;;;1.10;59.30;;;;;;5063096;28;20024;-60
2022/02/04 17:10:43;;;;;;;10.70;6.55;;;1.10;58.90;;;;;;5070484;28;20078;-60
2022/02/04 17:13:10;;;;;;;11.02;5.22;;;1.00;58.90;;;;;;5076093;28;20023;-59
2022/02/04 17:15:38;;;;;;;10.57;8.05;;;1.00;59.20;;;;;;5079913;28;20061;-60
2022/02/04 17:18:05;;;;;;;8.75;5.70;;;1.00;59.30;;;;;;5071279;28;20523;-59
2022/02/04 17:20:31;;;;;;;12.20;9.30;;;1.00;59.80;;;;;;5071657;28;20127;-59
2022/02/04 17:23:02;;;;;;;10.38;9.23;;;1.00;59.10;;;;;;5071383;28;20031;-59
2022/02/04 17:25:29;;;;;;;8.88;5.80;;;1.10;59.00;;;;;;5083561;28;20515;-59
2022/02/04 17:27:57;;;;;;;10.23;9.10;;;1.00;58.90;;;;;;5076860;28;20048;-59
2022/02/04 17:30:25;;;;;;;11.13;9.07;;;1.00;59.10;;;;;;5082736;28;20016;-60
2022/02/04 17:32:52;;;;;;;10.98;8.77;;;1.00;59.10;;;;;;5067232;28;20099;-59
2022/02/04 17:35:21;;;;;;;11.18;9.68;;;1.00;59.30;;;;;;5085626;28;20040;-59
2022/02/04 17:37:51;;;;;;;7.55;5.07;;;1.00;59.40;;;;;;5072349;28;20036;-59
2022/02/04 17:40:17;;;;;;;7.80;7.00;;;0.90;59.60;;;;;;5069251;28;20107;-59
2022/02/04 17:42:44;;;;;;;9.00;7.28;;;0.90;60.00;;;;;;5078194;28;20046;-59
2022/02/04 17:45:14;;;;;;;6.88;4.57;;;0.90;60.40;;;;;;5061565;28;20042;-59
2022/02/04 17:47:40;;;;;;;8.30;6.90;;;0.90;60.50;;;;;;5067978;28;20028;-58
2022/02/04 17:53:13;;;;;;;8.23;7.35;;;0.80;61.10;;;;;;5074990;28;20060;-59
2022/02/04 17:55:31;;;;;;;11.20;8.65;;;0.80;61.30;;;;;;5066066;28;20025;-59
2022/02/04 17:58:09;;;;;;;11.25;9.05;;;0.80;61.10;;;;;;5078550;28;20098;-58
2022/02/04 18:03:34;;;;;;;9.98;8.32;;;0.80;60.90;;;;;;5071502;28;20024;-59
2022/02/04 18:06:13;;;;;;;9.95;8.68;;;0.80;61.10;;;;;;5062323;28;20041;-59
2022/02/04 18:08:38;;;;;;;13.95;10.20;;;0.80;60.90;;;;;;5079489;28;20021;-58
2022/02/04 18:11:05;;;;;;;11.45;7.32;;;0.80;60.70;;;;;;5068492;28;20021;-59
2022/02/04 18:13:32;;;;;;;11.48;9.52;;;0.80;60.70;;;;;;5069697;28;20025;-59
2022/02/04 18:16:00;;;;;;;13.57;10.77;;;0.70;60.80;;;;;;5067367;28;20017;-59
2022/02/04 18:18:27;;;;;;;13.63;11.45;;;0.80;60.70;;;;;;5070067;28;20025;-59
2022/02/04 18:20:53;;;;;;;13.10;11.43;;;0.70;60.60;;;;;;5066005;28;20060;-59
2022/02/04 18:23:20;;;;;;;14.80;11.98;;;0.70;60.60;;;;;;5049326;28;20029;-59
2022/02/04 18:25:50;;;;;;;11.93;7.55;;;0.60;60.60;;;;;;5064645;28;20041;-59
2022/02/04 18:28:16;;;;;;;11.90;10.00;;;0.50;60.50;;;;;;5071992;28;20484;-59
2022/02/04 18:30:42;;;;;;;12.45;6.43;;;0.50;60.80;;;;;;5071799;28;20028;-59
2022/02/04 18:33:09;;;;;;;11.48;9.80;;;0.30;60.80;;;;;;5054930;28;20385;-59
2022/02/04 18:35:35;;;;;;;12.98;10.45;;;0.30;61.00;;;;;;5071766;28;20064;-59
2022/02/04 18:45:54;;;;;;;10.00;6.10;;;0.10;61.60;;;;;;5063197;28;20055;-59
2022/02/04 18:48:23;;;;;;;11.20;9.95;;;0.00;61.80;;;;;;5057131;28;20040;-59
2022/02/04 18:56:16;;;;;;;11.10;9.95;;;-0.10;62.10;;;;;;5066897;28;20021;-59
2022/02/04 18:58:43;;;;;;;9.25;6.40;;;-0.10;62.40;;;;;;5074794;28;20509;-59
2022/02/04 19:01:10;;;;;;;9.48;6.43;;;-0.10;62.30;;;;;;5075949;28;20051;-58
2022/02/04 19:03:44;;;;;;;12.18;10.70;;;-0.20;62.50;;;;;;5075199;28;20037;-59
2022/02/04 19:06:31;;;;;;;11.90;6.60;;;-0.10;62.70;;;;;;5062429;28;20028;-58
2022/02/04 19:09:00;;;;;;;14.27;10.85;;;-0.20;62.70;;;;;;5055856;28;20036;-59
2022/02/04 19:11:46;;;;;;;14.35;11.15;;;-0.10;63.00;;;;;;5067240;28;20025;-58
2022/02/04 19:14:17;;;;;;;15.30;11.82;;;-0.10;62.90;;;;;;5075863;28;20066;-59
2022/02/04 19:17:00;;;;;;;13.07;10.70;;;-0.10;62.90;;;;;;5074829;28;20089;-59
2022/02/04 19:19:45;;;;;;;11.93;7.18;;;-0.10;63.10;;;;;;5064353;28;20040;-58
2022/02/04 19:24:43;;;;;;;14.45;12.82;;;-0.20;63.20;;;;;;5075608;28;20089;-59
2022/02/04 19:27:08;;;;;;;15.45;12.88;;;-0.20;63.20;;;;;;5073582;28;20492;-59
2022/02/04 19:29:37;;;;;;;13.38;8.10;;;-0.20;63.20;;;;;;5066655;28;20027;-59
2022/02/04 19:32:04;;;;;;;14.43;11.40;;;-0.20;63.20;;;;;;5056932;28;20484;-59
2022/02/04 19:34:30;;;;;;;12.85;11.23;;;-0.20;63.40;;;;;;5070020;28;20090;-59